sensor_id;sensor_type;location;lat;lon;timestamp;P1;durP1;ratioP1;P2;durP2;ratioP2
22468;SDS011;11401;50.792;4.352;2023-05-07T00:01:38;6.10;;;3.53;;
22468;SDS011;11401;50.792;4.352;2023-05-07T00:04:05;11.65;;;4.43;;
22468;SDS011;11401;50.792;4.352;2023-05-07T00:06:34;7.93;;;3.33;;
22468;SDS011;11401;50.792;4.352;2023-05-07T00:09:01;5.95;;;3.13;;
22468;SDS011;11401;50.792;4.352;2023-05-07T00:11:29;4.40;;;2.97;;
22468;SDS011;11401;50.792;4.352;2023-05-07T00:13:56;7.65;;;2.80;;
22468;SDS011;11401;50.792;4.352;2023-05-07T00:16:23;5.22;;;3.40;;
22468;SDS011;11401;50.792;4.352;2023-05-07T00:18:50;5.63;;;3.17;;
22468;SDS011;11401;50.792;4.352;2023-05-07T00:21:17;6.22;;;3.13;;
22468;SDS011;11401;50.792;4.352;2023-05-07T00:23:44;4.70;;;2.88;;
22468;SDS011;11401;50.792;4.352;2023-05-07T00:26:11;7.38;;;3.28;;
22468;SDS011;11401;50.792;4.352;2023-05-07T00:28:39;4.13;;;2.53;;
22468;SDS011;11401;50.792;4.352;2023-05-07T00:31:07;5.68;;;2.83;;
22468;SDS011;11401;50.792;4.352;2023-05-07T00:33:35;5.53;;;3.10;;
22468;SDS011;11401;50.792;4.352;2023-05-07T00:36:02;6.53;;;3.28;;
22468;SDS011;11401;50.792;4.352;2023-05-07T00:38:30;8.75;;;3.33;;
22468;SDS011;11401;50.792;4.352;2023-05-07T00:40:57;3.78;;;2.80;;
22468;SDS011;11401;50.792;4.352;2023-05-07T00:43:24;7.68;;;2.65;;
22468;SDS011;11401;50.792;4.352;2023-05-07T00:45:51;8.38;;;3.58;;
22468;SDS011;11401;50.792;4.352;2023-05-07T00:48:18;8.13;;;2.85;;
22468;SDS011;11401;50.792;4.352;2023-05-07T00:50:45;6.60;;;3.92;;
22468;SDS011;11401;50.792;4.352;2023-05-07T00:53:14;4.40;;;2.88;;
22468;SDS011;11401;50.792;4.352;2023-05-07T00:55:41;7.40;;;3.15;;
22468;SDS011;11401;50.792;4.352;2023-05-07T00:58:08;7.53;;;2.90;;
22468;SDS011;11401;50.792;4.352;2023-05-07T01:00:35;5.85;;;3.10;;
22468;SDS011;11401;50.792;4.352;2023-05-07T01:03:03;10.57;;;3.25;;
22468;SDS011;11401;50.792;4.352;2023-05-07T01:05:31;7.57;;;2.70;;
22468;SDS011;11401;50.792;4.352;2023-05-07T01:07:59;9.07;;;2.80;;
22468;SDS011;11401;50.792;4.352;2023-05-07T01:10:28;4.80;;;2.95;;
22468;SDS011;11401;50.792;4.352;2023-05-07T01:12:57;4.07;;;3.08;;
22468;SDS011;11401;50.792;4.352;2023-05-07T01:15:26;5.18;;;2.85;;
22468;SDS011;11401;50.792;4.352;2023-05-07T01:17:56;6.70;;;2.55;;
22468;SDS011;11401;50.792;4.352;2023-05-07T01:20:32;6.63;;;2.83;;
22468;SDS011;11401;50.792;4.352;2023-05-07T01:22:59;5.57;;;2.83;;
22468;SDS011;11401;50.792;4.352;2023-05-07T01:25:27;6.75;;;2.88;;
22468;SDS011;11401;50.792;4.352;2023-05-07T01:27:59;5.72;;;2.90;;
22468;SDS011;11401;50.792;4.352;2023-05-07T01:30:30;7.82;;;3.17;;
22468;SDS011;11401;50.792;4.352;2023-05-07T01:33:06;5.30;;;2.60;;
22468;SDS011;11401;50.792;4.352;2023-05-07T01:38:57;8.32;;;2.95;;
22468;SDS011;11401;50.792;4.352;2023-05-07T01:41:25;7.82;;;2.83;;
22468;SDS011;11401;50.792;4.352;2023-05-07T01:43:53;7.72;;;2.83;;
22468;SDS011;11401;50.792;4.352;2023-05-07T01:46:21;4.63;;;2.72;;
22468;SDS011;11401;50.792;4.352;2023-05-07T01:48:48;11.18;;;3.22;;
22468;SDS011;11401;50.792;4.352;2023-05-07T01:51:16;5.88;;;2.80;;
22468;SDS011;11401;50.792;4.352;2023-05-07T01:53:43;4.20;;;2.60;;
22468;SDS011;11401;50.792;4.352;2023-05-07T01:56:12;5.50;;;2.70;;
22468;SDS011;11401;50.792;4.352;2023-05-07T01:58:41;7.03;;;3.42;;
22468;SDS011;11401;50.792;4.352;2023-05-07T02:01:08;12.23;;;2.83;;
22468;SDS011;11401;50.792;4.352;2023-05-07T02:03:35;6.80;;;2.85;;
22468;SDS011;11401;50.792;4.352;2023-05-07T02:06:10;6.00;;;2.40;;
22468;SDS011;11401;50.792;4.352;2023-05-07T02:08:38;6.60;;;2.95;;
22468;SDS011;11401;50.792;4.352;2023-05-07T02:11:05;7.13;;;3.47;;
22468;SDS011;11401;50.792;4.352;2023-05-07T02:13:34;11.68;;;2.95;;
22468;SDS011;11401;50.792;4.352;2023-05-07T02:16:01;5.72;;;3.08;;
22468;SDS011;11401;50.792;4.352;2023-05-07T02:18:29;8.38;;;3.33;;
22468;SDS011;11401;50.792;4.352;2023-05-07T02:20:56;9.25;;;3.10;;
22468;SDS011;11401;50.792;4.352;2023-05-07T02:23:23;5.28;;;2.70;;
22468;SDS011;11401;50.792;4.352;2023-05-07T02:25:50;5.22;;;2.90;;
22468;SDS011;11401;50.792;4.352;2023-05-07T02:28:18;5.20;;;3.00;;
22468;SDS011;11401;50.792;4.352;2023-05-07T02:31:05;10.88;;;3.15;;
22468;SDS011;11401;50.792;4.352;2023-05-07T02:33:33;4.60;;;2.78;;
22468;SDS011;11401;50.792;4.352;2023-05-07T02:36:10;3.05;;;2.67;;
22468;SDS011;11401;50.792;4.352;2023-05-07T02:38:46;5.57;;;2.70;;
22468;SDS011;11401;50.792;4.352;2023-05-07T02:41:13;7.43;;;3.22;;
22468;SDS011;11401;50.792;4.352;2023-05-07T02:43:40;5.78;;;2.85;;
22468;SDS011;11401;50.792;4.352;2023-05-07T02:46:08;4.88;;;2.42;;
22468;SDS011;11401;50.792;4.352;2023-05-07T02:48:40;6.93;;;2.60;;
22468;SDS011;11401;50.792;4.352;2023-05-07T02:51:07;5.10;;;2.60;;
22468;SDS011;11401;50.792;4.352;2023-05-07T02:53:35;5.13;;;2.80;;
22468;SDS011;11401;50.792;4.352;2023-05-07T02:56:03;5.53;;;2.47;;
22468;SDS011;11401;50.792;4.352;2023-05-07T02:58:30;4.03;;;2.67;;
22468;SDS011;11401;50.792;4.352;2023-05-07T03:00:59;8.00;;;3.10;;
22468;SDS011;11401;50.792;4.352;2023-05-07T03:03:49;8.00;;;2.95;;
22468;SDS011;11401;50.792;4.352;2023-05-07T03:06:16;6.15;;;2.40;;
22468;SDS011;11401;50.792;4.352;2023-05-07T03:08:43;6.05;;;2.72;;
22468;SDS011;11401;50.792;4.352;2023-05-07T03:11:10;8.80;;;2.80;;
22468;SDS011;11401;50.792;4.352;2023-05-07T03:13:37;5.93;;;2.70;;
22468;SDS011;11401;50.792;4.352;2023-05-07T03:16:04;4.88;;;2.55;;
22468;SDS011;11401;50.792;4.352;2023-05-07T03:18:31;8.20;;;2.58;;
22468;SDS011;11401;50.792;4.352;2023-05-07T03:20:59;5.07;;;3.08;;
22468;SDS011;11401;50.792;4.352;2023-05-07T03:23:26;5.03;;;2.65;;
22468;SDS011;11401;50.792;4.352;2023-05-07T03:25:53;9.02;;;2.72;;
22468;SDS011;11401;50.792;4.352;2023-05-07T03:28:20;4.35;;;3.10;;
22468;SDS011;11401;50.792;4.352;2023-05-07T03:30:55;5.57;;;2.88;;
22468;SDS011;11401;50.792;4.352;2023-05-07T03:33:22;6.40;;;2.47;;
22468;SDS011;11401;50.792;4.352;2023-05-07T03:35:50;3.95;;;2.25;;
22468;SDS011;11401;50.792;4.352;2023-05-07T03:38:21;5.82;;;2.92;;
22468;SDS011;11401;50.792;4.352;2023-05-07T03:40:49;5.07;;;3.00;;
22468;SDS011;11401;50.792;4.352;2023-05-07T03:43:16;6.53;;;2.95;;
22468;SDS011;11401;50.792;4.352;2023-05-07T03:45:48;7.13;;;3.10;;
22468;SDS011;11401;50.792;4.352;2023-05-07T03:48:20;3.10;;;2.58;;
22468;SDS011;11401;50.792;4.352;2023-05-07T03:50:49;5.15;;;2.95;;
22468;SDS011;11401;50.792;4.352;2023-05-07T03:53:18;5.50;;;2.55;;
22468;SDS011;11401;50.792;4.352;2023-05-07T03:55:45;5.53;;;2.85;;
22468;SDS011;11401;50.792;4.352;2023-05-07T03:58:12;4.53;;;2.70;;
22468;SDS011;11401;50.792;4.352;2023-05-07T04:00:39;4.47;;;2.38;;
22468;SDS011;11401;50.792;4.352;2023-05-07T04:03:24;4.30;;;2.67;;
22468;SDS011;11401;50.792;4.352;2023-05-07T04:05:52;4.32;;;2.97;;
22468;SDS011;11401;50.792;4.352;2023-05-07T04:08:20;5.85;;;2.42;;
22468;SDS011;11401;50.792;4.352;2023-05-07T04:10:55;4.80;;;2.70;;
22468;SDS011;11401;50.792;4.352;2023-05-07T04:13:25;7.47;;;2.75;;
22468;SDS011;11401;50.792;4.352;2023-05-07T04:15:52;4.53;;;2.55;;
22468;SDS011;11401;50.792;4.352;2023-05-07T04:18:23;6.75;;;2.38;;
22468;SDS011;11401;50.792;4.352;2023-05-07T04:20:50;8.57;;;2.92;;
22468;SDS011;11401;50.792;4.352;2023-05-07T04:23:17;5.40;;;2.28;;
22468;SDS011;11401;50.792;4.352;2023-05-07T04:25:44;6.35;;;2.95;;
22468;SDS011;11401;50.792;4.352;2023-05-07T04:28:43;6.97;;;2.72;;
22468;SDS011;11401;50.792;4.352;2023-05-07T04:31:11;5.38;;;2.55;;
22468;SDS011;11401;50.792;4.352;2023-05-07T04:33:39;4.65;;;2.40;;
22468;SDS011;11401;50.792;4.352;2023-05-07T04:36:10;5.68;;;2.58;;
22468;SDS011;11401;50.792;4.352;2023-05-07T04:38:45;4.65;;;2.72;;
22468;SDS011;11401;50.792;4.352;2023-05-07T04:41:13;4.43;;;2.55;;
22468;SDS011;11401;50.792;4.352;2023-05-07T04:43:40;4.45;;;2.55;;
22468;SDS011;11401;50.792;4.352;2023-05-07T04:46:09;6.60;;;2.55;;
22468;SDS011;11401;50.792;4.352;2023-05-07T04:48:36;4.68;;;2.47;;
22468;SDS011;11401;50.792;4.352;2023-05-07T04:51:05;7.97;;;3.15;;
22468;SDS011;11401;50.792;4.352;2023-05-07T04:53:32;4.25;;;2.55;;
22468;SDS011;11401;50.792;4.352;2023-05-07T04:55:59;5.65;;;3.08;;
22468;SDS011;11401;50.792;4.352;2023-05-07T04:58:33;5.43;;;3.67;;
22468;SDS011;11401;50.792;4.352;2023-05-07T05:01:00;7.22;;;2.75;;
22468;SDS011;11401;50.792;4.352;2023-05-07T05:03:28;6.10;;;2.92;;
22468;SDS011;11401;50.792;4.352;2023-05-07T05:05:57;3.72;;;2.45;;
22468;SDS011;11401;50.792;4.352;2023-05-07T05:08:29;8.15;;;2.88;;
22468;SDS011;11401;50.792;4.352;2023-05-07T05:10:58;3.53;;;2.67;;
22468;SDS011;11401;50.792;4.352;2023-05-07T05:13:27;7.25;;;3.00;;
22468;SDS011;11401;50.792;4.352;2023-05-07T05:15:54;6.05;;;3.08;;
22468;SDS011;11401;50.792;4.352;2023-05-07T05:18:23;4.75;;;2.60;;
22468;SDS011;11401;50.792;4.352;2023-05-07T05:20:51;5.32;;;3.10;;
22468;SDS011;11401;50.792;4.352;2023-05-07T05:23:18;5.32;;;2.55;;
22468;SDS011;11401;50.792;4.352;2023-05-07T05:25:46;6.60;;;2.75;;
22468;SDS011;11401;50.792;4.352;2023-05-07T05:28:14;4.60;;;2.58;;
22468;SDS011;11401;50.792;4.352;2023-05-07T05:30:41;3.00;;;2.70;;
22468;SDS011;11401;50.792;4.352;2023-05-07T05:33:08;4.95;;;2.95;;
22468;SDS011;11401;50.792;4.352;2023-05-07T05:35:35;5.25;;;2.63;;
22468;SDS011;11401;50.792;4.352;2023-05-07T05:38:08;6.35;;;2.58;;
22468;SDS011;11401;50.792;4.352;2023-05-07T05:40:35;4.43;;;2.15;;
22468;SDS011;11401;50.792;4.352;2023-05-07T05:43:02;6.00;;;2.95;;
22468;SDS011;11401;50.792;4.352;2023-05-07T05:45:30;4.97;;;2.90;;
22468;SDS011;11401;50.792;4.352;2023-05-07T05:47:57;5.32;;;2.70;;
22468;SDS011;11401;50.792;4.352;2023-05-07T05:50:24;3.88;;;2.72;;
22468;SDS011;11401;50.792;4.352;2023-05-07T05:52:52;5.22;;;2.70;;
22468;SDS011;11401;50.792;4.352;2023-05-07T05:55:20;3.90;;;2.65;;
22468;SDS011;11401;50.792;4.352;2023-05-07T05:57:48;7.07;;;3.50;;
22468;SDS011;11401;50.792;4.352;2023-05-07T06:00:16;8.25;;;3.40;;
22468;SDS011;11401;50.792;4.352;2023-05-07T06:02:44;5.90;;;3.78;;
22468;SDS011;11401;50.792;4.352;2023-05-07T06:05:16;5.35;;;3.20;;
22468;SDS011;11401;50.792;4.352;2023-05-07T06:07:44;8.80;;;3.42;;
22468;SDS011;11401;50.792;4.352;2023-05-07T06:10:11;6.07;;;3.10;;
22468;SDS011;11401;50.792;4.352;2023-05-07T06:12:40;6.38;;;3.88;;
22468;SDS011;11401;50.792;4.352;2023-05-07T06:15:07;6.95;;;3.28;;
22468;SDS011;11401;50.792;4.352;2023-05-07T06:17:34;9.95;;;4.35;;
22468;SDS011;11401;50.792;4.352;2023-05-07T06:20:01;5.63;;;3.65;;
22468;SDS011;11401;50.792;4.352;2023-05-07T06:22:28;6.90;;;3.85;;
22468;SDS011;11401;50.792;4.352;2023-05-07T06:24:56;9.43;;;4.20;;
22468;SDS011;11401;50.792;4.352;2023-05-07T06:27:23;9.80;;;3.50;;
22468;SDS011;11401;50.792;4.352;2023-05-07T06:29:50;9.70;;;4.32;;
22468;SDS011;11401;50.792;4.352;2023-05-07T06:32:18;4.07;;;2.83;;
22468;SDS011;11401;50.792;4.352;2023-05-07T06:34:45;9.00;;;3.90;;
22468;SDS011;11401;50.792;4.352;2023-05-07T06:37:14;4.80;;;3.50;;
22468;SDS011;11401;50.792;4.352;2023-05-07T06:40:13;8.60;;;5.15;;
22468;SDS011;11401;50.792;4.352;2023-05-07T06:42:42;5.97;;;2.70;;
22468;SDS011;11401;50.792;4.352;2023-05-07T06:45:22;5.70;;;2.78;;
22468;SDS011;11401;50.792;4.352;2023-05-07T06:47:52;6.03;;;3.65;;
22468;SDS011;11401;50.792;4.352;2023-05-07T06:50:21;4.05;;;2.80;;
22468;SDS011;11401;50.792;4.352;2023-05-07T06:52:49;2.45;;;2.17;;
22468;SDS011;11401;50.792;4.352;2023-05-07T06:55:24;10.68;;;4.65;;
22468;SDS011;11401;50.792;4.352;2023-05-07T06:57:52;6.53;;;3.75;;
22468;SDS011;11401;50.792;4.352;2023-05-07T07:00:21;8.68;;;4.57;;
22468;SDS011;11401;50.792;4.352;2023-05-07T07:02:53;7.88;;;4.57;;
22468;SDS011;11401;50.792;4.352;2023-05-07T07:05:24;12.75;;;4.82;;
22468;SDS011;11401;50.792;4.352;2023-05-07T07:07:51;6.70;;;4.05;;
22468;SDS011;11401;50.792;4.352;2023-05-07T07:10:21;7.95;;;4.53;;
22468;SDS011;11401;50.792;4.352;2023-05-07T07:12:50;10.93;;;5.05;;
22468;SDS011;11401;50.792;4.352;2023-05-07T07:15:19;7.20;;;4.85;;
22468;SDS011;11401;50.792;4.352;2023-05-07T07:17:48;6.85;;;4.50;;
22468;SDS011;11401;50.792;4.352;2023-05-07T07:20:15;7.15;;;4.43;;
22468;SDS011;11401;50.792;4.352;2023-05-07T07:22:44;8.30;;;4.00;;
22468;SDS011;11401;50.792;4.352;2023-05-07T07:25:12;6.53;;;4.00;;
22468;SDS011;11401;50.792;4.352;2023-05-07T07:27:39;6.07;;;4.53;;
22468;SDS011;11401;50.792;4.352;2023-05-07T07:30:07;9.73;;;4.32;;
22468;SDS011;11401;50.792;4.352;2023-05-07T07:32:37;7.85;;;4.20;;
22468;SDS011;11401;50.792;4.352;2023-05-07T07:35:05;12.38;;;4.50;;
22468;SDS011;11401;50.792;4.352;2023-05-07T07:37:32;8.10;;;5.15;;
22468;SDS011;11401;50.792;4.352;2023-05-07T07:40:00;8.55;;;4.20;;
22468;SDS011;11401;50.792;4.352;2023-05-07T07:42:27;8.65;;;4.15;;
22468;SDS011;11401;50.792;4.352;2023-05-07T07:44:56;8.95;;;4.65;;
22468;SDS011;11401;50.792;4.352;2023-05-07T07:47:27;10.65;;;4.60;;
22468;SDS011;11401;50.792;4.352;2023-05-07T07:49:54;8.73;;;4.72;;
22468;SDS011;11401;50.792;4.352;2023-05-07T07:52:21;5.45;;;4.22;;
22468;SDS011;11401;50.792;4.352;2023-05-07T07:54:48;10.27;;;4.20;;
22468;SDS011;11401;50.792;4.352;2023-05-07T07:57:15;4.15;;;3.50;;
22468;SDS011;11401;50.792;4.352;2023-05-07T07:59:43;4.93;;;3.72;;
22468;SDS011;11401;50.792;4.352;2023-05-07T08:02:12;7.35;;;3.92;;
22468;SDS011;11401;50.792;4.352;2023-05-07T08:04:39;8.52;;;4.03;;
22468;SDS011;11401;50.792;4.352;2023-05-07T08:07:07;5.15;;;3.55;;
22468;SDS011;11401;50.792;4.352;2023-05-07T08:09:38;7.30;;;3.45;;
22468;SDS011;11401;50.792;4.352;2023-05-07T08:12:06;6.82;;;4.00;;
22468;SDS011;11401;50.792;4.352;2023-05-07T08:14:34;3.47;;;3.15;;
22468;SDS011;11401;50.792;4.352;2023-05-07T08:17:05;5.05;;;3.85;;
22468;SDS011;11401;50.792;4.352;2023-05-07T08:19:33;7.50;;;3.92;;
22468;SDS011;11401;50.792;4.352;2023-05-07T08:22:02;5.32;;;3.70;;
22468;SDS011;11401;50.792;4.352;2023-05-07T08:24:32;7.03;;;3.42;;
22468;SDS011;11401;50.792;4.352;2023-05-07T08:26:59;8.73;;;4.25;;
22468;SDS011;11401;50.792;4.352;2023-05-07T08:29:26;6.30;;;3.63;;
22468;SDS011;11401;50.792;4.352;2023-05-07T08:31:54;8.27;;;4.32;;
22468;SDS011;11401;50.792;4.352;2023-05-07T08:34:21;13.23;;;4.15;;
22468;SDS011;11401;50.792;4.352;2023-05-07T08:36:51;11.02;;;4.75;;
22468;SDS011;11401;50.792;4.352;2023-05-07T08:39:21;9.60;;;4.43;;
22468;SDS011;11401;50.792;4.352;2023-05-07T08:41:51;13.10;;;4.80;;
22468;SDS011;11401;50.792;4.352;2023-05-07T08:44:26;8.60;;;4.03;;
22468;SDS011;11401;50.792;4.352;2023-05-07T08:46:56;6.57;;;3.80;;
22468;SDS011;11401;50.792;4.352;2023-05-07T08:49:25;8.05;;;3.65;;
22468;SDS011;11401;50.792;4.352;2023-05-07T08:51:53;8.25;;;4.68;;
22468;SDS011;11401;50.792;4.352;2023-05-07T08:54:20;9.95;;;4.38;;
22468;SDS011;11401;50.792;4.352;2023-05-07T08:56:48;8.30;;;4.78;;
22468;SDS011;11401;50.792;4.352;2023-05-07T08:59:15;7.00;;;4.60;;
22468;SDS011;11401;50.792;4.352;2023-05-07T09:01:43;5.18;;;3.78;;
22468;SDS011;11401;50.792;4.352;2023-05-07T09:04:12;8.98;;;3.90;;
22468;SDS011;11401;50.792;4.352;2023-05-07T09:06:40;6.20;;;3.63;;
22468;SDS011;11401;50.792;4.352;2023-05-07T09:09:13;9.70;;;4.43;;
22468;SDS011;11401;50.792;4.352;2023-05-07T09:11:44;7.65;;;3.75;;
22468;SDS011;11401;50.792;4.352;2023-05-07T09:14:13;7.35;;;3.22;;
22468;SDS011;11401;50.792;4.352;2023-05-07T09:16:42;8.93;;;3.53;;
22468;SDS011;11401;50.792;4.352;2023-05-07T09:19:10;9.55;;;3.47;;
22468;SDS011;11401;50.792;4.352;2023-05-07T09:21:43;4.38;;;3.25;;
22468;SDS011;11401;50.792;4.352;2023-05-07T09:24:11;7.40;;;3.22;;
22468;SDS011;11401;50.792;4.352;2023-05-07T09:26:42;5.90;;;3.45;;
22468;SDS011;11401;50.792;4.352;2023-05-07T09:29:10;7.03;;;4.18;;
22468;SDS011;11401;50.792;4.352;2023-05-07T09:31:38;6.85;;;3.20;;
22468;SDS011;11401;50.792;4.352;2023-05-07T09:34:08;5.72;;;3.38;;
22468;SDS011;11401;50.792;4.352;2023-05-07T09:36:39;6.07;;;3.95;;
22468;SDS011;11401;50.792;4.352;2023-05-07T09:39:06;7.75;;;4.38;;
22468;SDS011;11401;50.792;4.352;2023-05-07T09:41:33;7.28;;;3.58;;
22468;SDS011;11401;50.792;4.352;2023-05-07T09:44:21;6.57;;;3.83;;
22468;SDS011;11401;50.792;4.352;2023-05-07T09:46:53;7.25;;;3.70;;
22468;SDS011;11401;50.792;4.352;2023-05-07T09:49:29;10.82;;;4.75;;
22468;SDS011;11401;50.792;4.352;2023-05-07T09:52:03;9.43;;;4.38;;
22468;SDS011;11401;50.792;4.352;2023-05-07T09:54:42;7.80;;;3.25;;
22468;SDS011;11401;50.792;4.352;2023-05-07T09:57:12;7.47;;;3.25;;
22468;SDS011;11401;50.792;4.352;2023-05-07T09:59:43;3.63;;;2.78;;
22468;SDS011;11401;50.792;4.352;2023-05-07T10:02:16;5.85;;;3.88;;
22468;SDS011;11401;50.792;4.352;2023-05-07T10:04:49;5.25;;;3.33;;
22468;SDS011;11401;50.792;4.352;2023-05-07T10:07:21;5.88;;;2.90;;
22468;SDS011;11401;50.792;4.352;2023-05-07T10:09:53;4.70;;;3.35;;
22468;SDS011;11401;50.792;4.352;2023-05-07T10:12:28;5.85;;;3.00;;
22468;SDS011;11401;50.792;4.352;2023-05-07T10:14:56;9.23;;;3.08;;
22468;SDS011;11401;50.792;4.352;2023-05-07T10:17:24;5.85;;;3.25;;
22468;SDS011;11401;50.792;4.352;2023-05-07T10:19:52;8.23;;;3.35;;
22468;SDS011;11401;50.792;4.352;2023-05-07T10:22:21;6.22;;;3.85;;
22468;SDS011;11401;50.792;4.352;2023-05-07T10:24:50;5.40;;;3.28;;
22468;SDS011;11401;50.792;4.352;2023-05-07T10:27:21;7.18;;;2.70;;
22468;SDS011;11401;50.792;4.352;2023-05-07T10:32:48;5.07;;;2.67;;
22468;SDS011;11401;50.792;4.352;2023-05-07T10:35:27;5.38;;;2.95;;
22468;SDS011;11401;50.792;4.352;2023-05-07T10:38:01;4.85;;;2.80;;
22468;SDS011;11401;50.792;4.352;2023-05-07T10:40:31;3.63;;;2.30;;
22468;SDS011;11401;50.792;4.352;2023-05-07T10:43:01;5.95;;;2.28;;
22468;SDS011;11401;50.792;4.352;2023-05-07T10:45:42;6.10;;;2.20;;
22468;SDS011;11401;50.792;4.352;2023-05-07T10:48:12;2.83;;;2.10;;
22468;SDS011;11401;50.792;4.352;2023-05-07T10:50:52;3.35;;;2.20;;
22468;SDS011;11401;50.792;4.352;2023-05-07T10:53:54;2.67;;;2.30;;
22468;SDS011;11401;50.792;4.352;2023-05-07T10:56:41;3.33;;;2.40;;
22468;SDS011;11401;50.792;4.352;2023-05-07T11:02:05;2.63;;;2.00;;
22468;SDS011;11401;50.792;4.352;2023-05-07T11:07:56;5.60;;;2.10;;
22468;SDS011;11401;50.792;4.352;2023-05-07T11:10:52;4.47;;;2.22;;
22468;SDS011;11401;50.792;4.352;2023-05-07T11:13:44;2.33;;;2.00;;
22468;SDS011;11401;50.792;4.352;2023-05-07T11:16:44;3.80;;;1.95;;
22468;SDS011;11401;50.792;4.352;2023-05-07T11:19:47;2.45;;;2.20;;
22468;SDS011;11401;50.792;4.352;2023-05-07T11:25:17;3.90;;;2.00;;
22468;SDS011;11401;50.792;4.352;2023-05-07T11:27:50;4.32;;;2.10;;
22468;SDS011;11401;50.792;4.352;2023-05-07T11:30:19;4.43;;;2.17;;
22468;SDS011;11401;50.792;4.352;2023-05-07T11:32:47;2.53;;;2.20;;
22468;SDS011;11401;50.792;4.352;2023-05-07T11:35:16;6.97;;;2.55;;
22468;SDS011;11401;50.792;4.352;2023-05-07T11:37:46;3.33;;;2.33;;
22468;SDS011;11401;50.792;4.352;2023-05-07T11:40:15;3.08;;;2.13;;
22468;SDS011;11401;50.792;4.352;2023-05-07T11:42:42;3.92;;;1.90;;
22468;SDS011;11401;50.792;4.352;2023-05-07T11:45:09;2.95;;;2.00;;
22468;SDS011;11401;50.792;4.352;2023-05-07T11:47:37;4.57;;;2.10;;
22468;SDS011;11401;50.792;4.352;2023-05-07T11:50:08;3.17;;;2.20;;
22468;SDS011;11401;50.792;4.352;2023-05-07T11:52:36;2.45;;;1.73;;
22468;SDS011;11401;50.792;4.352;2023-05-07T11:55:06;3.42;;;2.13;;
22468;SDS011;11401;50.792;4.352;2023-05-07T11:57:34;3.70;;;2.53;;
22468;SDS011;11401;50.792;4.352;2023-05-07T12:00:02;2.28;;;1.80;;
22468;SDS011;11401;50.792;4.352;2023-05-07T12:02:39;2.80;;;2.03;;
22468;SDS011;11401;50.792;4.352;2023-05-07T12:05:08;3.17;;;2.22;;
22468;SDS011;11401;50.792;4.352;2023-05-07T12:07:36;2.28;;;2.08;;
22468;SDS011;11401;50.792;4.352;2023-05-07T12:10:04;3.45;;;1.88;;
22468;SDS011;11401;50.792;4.352;2023-05-07T12:12:38;4.35;;;2.60;;
22468;SDS011;11401;50.792;4.352;2023-05-07T12:15:07;2.10;;;1.90;;
22468;SDS011;11401;50.792;4.352;2023-05-07T12:17:35;4.07;;;2.30;;
22468;SDS011;11401;50.792;4.352;2023-05-07T12:20:03;3.30;;;2.40;;
22468;SDS011;11401;50.792;4.352;2023-05-07T12:22:31;5.05;;;2.90;;
22468;SDS011;11401;50.792;4.352;2023-05-07T12:24:58;3.95;;;2.90;;
22468;SDS011;11401;50.792;4.352;2023-05-07T12:27:26;3.35;;;3.05;;
22468;SDS011;11401;50.792;4.352;2023-05-07T12:29:53;6.82;;;3.83;;
22468;SDS011;11401;50.792;4.352;2023-05-07T12:32:20;4.63;;;4.00;;
22468;SDS011;11401;50.792;4.352;2023-05-07T12:34:51;3.47;;;3.17;;
22468;SDS011;11401;50.792;4.352;2023-05-07T12:37:24;4.63;;;3.45;;
22468;SDS011;11401;50.792;4.352;2023-05-07T12:40:08;6.10;;;4.22;;
22468;SDS011;11401;50.792;4.352;2023-05-07T12:42:36;7.65;;;4.05;;
22468;SDS011;11401;50.792;4.352;2023-05-07T12:45:07;4.38;;;3.72;;
22468;SDS011;11401;50.792;4.352;2023-05-07T12:47:43;4.88;;;4.05;;
22468;SDS011;11401;50.792;4.352;2023-05-07T12:50:14;5.80;;;4.30;;
22468;SDS011;11401;50.792;4.352;2023-05-07T12:52:43;7.93;;;4.95;;
22468;SDS011;11401;50.792;4.352;2023-05-07T12:55:15;10.95;;;5.55;;
22468;SDS011;11401;50.792;4.352;2023-05-07T12:57:43;6.70;;;5.88;;
22468;SDS011;11401;50.792;4.352;2023-05-07T13:00:14;25.92;;;6.38;;
22468;SDS011;11401;50.792;4.352;2023-05-07T13:02:43;5.78;;;5.05;;
22468;SDS011;11401;50.792;4.352;2023-05-07T13:05:11;7.47;;;5.95;;
22468;SDS011;11401;50.792;4.352;2023-05-07T13:07:39;6.32;;;5.72;;
22468;SDS011;11401;50.792;4.352;2023-05-07T13:10:07;6.07;;;5.43;;
22468;SDS011;11401;50.792;4.352;2023-05-07T13:12:35;7.18;;;5.45;;
22468;SDS011;11401;50.792;4.352;2023-05-07T13:15:02;8.98;;;5.50;;
22468;SDS011;11401;50.792;4.352;2023-05-07T13:17:29;5.97;;;4.82;;
22468;SDS011;11401;50.792;4.352;2023-05-07T13:19:58;6.63;;;5.35;;
22468;SDS011;11401;50.792;4.352;2023-05-07T13:22:25;7.47;;;5.63;;
22468;SDS011;11401;50.792;4.352;2023-05-07T13:24:52;6.65;;;6.00;;
22468;SDS011;11401;50.792;4.352;2023-05-07T13:27:19;7.72;;;6.07;;
22468;SDS011;11401;50.792;4.352;2023-05-07T13:29:47;8.23;;;6.57;;
22468;SDS011;11401;50.792;4.352;2023-05-07T13:32:14;7.68;;;6.78;;
22468;SDS011;11401;50.792;4.352;2023-05-07T13:34:41;7.45;;;6.50;;
22468;SDS011;11401;50.792;4.352;2023-05-07T13:37:08;7.90;;;7.10;;
22468;SDS011;11401;50.792;4.352;2023-05-07T13:39:37;9.30;;;7.18;;
22468;SDS011;11401;50.792;4.352;2023-05-07T13:42:04;7.80;;;6.00;;
22468;SDS011;11401;50.792;4.352;2023-05-07T13:44:31;6.72;;;6.13;;
22468;SDS011;11401;50.792;4.352;2023-05-07T13:46:58;8.30;;;7.53;;
22468;SDS011;11401;50.792;4.352;2023-05-07T13:49:25;8.27;;;6.85;;
22468;SDS011;11401;50.792;4.352;2023-05-07T13:51:52;7.75;;;6.88;;
22468;SDS011;11401;50.792;4.352;2023-05-07T13:54:19;9.35;;;7.38;;
22468;SDS011;11401;50.792;4.352;2023-05-07T13:56:46;10.30;;;8.73;;
22468;SDS011;11401;50.792;4.352;2023-05-07T13:59:13;8.48;;;7.53;;
22468;SDS011;11401;50.792;4.352;2023-05-07T14:01:41;12.82;;;8.13;;
22468;SDS011;11401;50.792;4.352;2023-05-07T14:04:08;9.98;;;7.93;;
22468;SDS011;11401;50.792;4.352;2023-05-07T14:06:35;9.10;;;7.82;;
22468;SDS011;11401;50.792;4.352;2023-05-07T14:09:02;9.50;;;7.60;;
22468;SDS011;11401;50.792;4.352;2023-05-07T14:11:29;6.70;;;6.00;;
22468;SDS011;11401;50.792;4.352;2023-05-07T14:13:59;6.95;;;6.25;;
22468;SDS011;11401;50.792;4.352;2023-05-07T14:16:26;6.70;;;6.00;;
22468;SDS011;11401;50.792;4.352;2023-05-07T14:18:53;9.13;;;6.47;;
22468;SDS011;11401;50.792;4.352;2023-05-07T14:21:23;7.10;;;6.50;;
22468;SDS011;11401;50.792;4.352;2023-05-07T14:23:50;10.10;;;8.18;;
22468;SDS011;11401;50.792;4.352;2023-05-07T14:26:17;8.13;;;7.25;;
22468;SDS011;11401;50.792;4.352;2023-05-07T14:28:45;7.55;;;6.78;;
22468;SDS011;11401;50.792;4.352;2023-05-07T14:31:12;10.23;;;7.22;;
22468;SDS011;11401;50.792;4.352;2023-05-07T14:33:39;7.68;;;6.88;;
22468;SDS011;11401;50.792;4.352;2023-05-07T14:36:07;7.70;;;5.63;;
22468;SDS011;11401;50.792;4.352;2023-05-07T14:38:34;7.45;;;6.05;;
22468;SDS011;11401;50.792;4.352;2023-05-07T14:41:02;7.50;;;6.07;;
22468;SDS011;11401;50.792;4.352;2023-05-07T14:43:29;7.10;;;5.90;;
22468;SDS011;11401;50.792;4.352;2023-05-07T14:45:56;6.30;;;5.53;;
22468;SDS011;11401;50.792;4.352;2023-05-07T14:48:23;6.10;;;5.57;;
22468;SDS011;11401;50.792;4.352;2023-05-07T14:50:50;6.05;;;5.28;;
22468;SDS011;11401;50.792;4.352;2023-05-07T14:53:17;5.65;;;4.95;;
22468;SDS011;11401;50.792;4.352;2023-05-07T14:55:44;5.38;;;4.97;;
22468;SDS011;11401;50.792;4.352;2023-05-07T14:58:11;6.20;;;5.60;;
22468;SDS011;11401;50.792;4.352;2023-05-07T15:00:39;6.70;;;5.60;;
22468;SDS011;11401;50.792;4.352;2023-05-07T15:03:07;8.63;;;5.45;;
22468;SDS011;11401;50.792;4.352;2023-05-07T15:05:39;6.22;;;5.20;;
22468;SDS011;11401;50.792;4.352;2023-05-07T15:08:07;7.13;;;6.03;;
22468;SDS011;11401;50.792;4.352;2023-05-07T15:10:35;5.63;;;5.03;;
22468;SDS011;11401;50.792;4.352;2023-05-07T15:13:10;5.60;;;5.00;;
22468;SDS011;11401;50.792;4.352;2023-05-07T15:15:42;6.95;;;6.22;;
22468;SDS011;11401;50.792;4.352;2023-05-07T15:18:12;6.13;;;5.63;;